Finlayson, Minnesota
Current Conditions -  °F | °C
As of 4:34 PM on Monday 26 Jan 2015 (Local Time) from K04W Reporting Station
Overcast Overcast  
Wind Chill: 34°   Ceiling: 3200
Heat Index: 37°   Visibility: 10mi
Dew Point: 32°   Wind: 5mph
Humidity: 81%   Direction: 320°NW
Pressure: 29.78"   Gusts: NA
Location:  46.2°N, 92.92°W
Report Text: K04W 262234Z AUTO 32004KT 10SM SCT023 OVC032 03/00 A2978 RMK AO2
Loading
Personal Weather Stations






























Interactive Weather Map New forecast layout! Learn more

10-Day Weather Forecast

Advertisements
Track Severe Weather on mobile